Time;durP1;ratioP1;P1;durP2;ratioP2;P2;SDS_P1;SDS_P2;PMS_P1;PMS_P2;Temp;Humidity;BMP_temperature;BMP_pressure;BME280_temperature;BME280_humidity;BME280_pressure;Samples;Min_cycle;Max_cycle;Signal;HPM_P1;HPM_P2
2023/09/26 00:00:29;;;;;;;7.05;4.45;;;;;;;18.14;100.00;63878.91;5059339;28;20236;-79
2023/09/26 00:02:57;;;;;;;7.68;5.55;;;;;;;18.13;100.00;63872.72;5049257;28;20197;-79
2023/09/26 00:05:24;;;;;;;9.05;4.70;;;;;;;18.11;100.00;63875.25;5064321;28;20213;-79
2023/09/26 00:07:54;;;;;;;8.90;4.70;;;;;;;18.08;100.00;63867.50;5067074;28;20211;-78
2023/09/26 00:10:22;;;;;;;9.68;4.70;;;;;;;18.08;100.00;63870.09;5050299;28;20324;-78
2023/09/26 00:12:50;;;;;;;8.57;4.80;;;;;;;18.10;100.00;63872.16;5054909;28;20252;-79
2023/09/26 00:15:17;;;;;;;6.68;4.70;;;;;;;18.05;100.00;63866.44;5061954;28;20221;-78
2023/09/26 00:17:45;;;;;;;7.72;5.10;;;;;;;18.02;100.00;63863.81;5050742;28;20207;-78
2023/09/26 00:20:15;;;;;;;8.95;4.95;;;;;;;18.03;100.00;63867.44;5047908;28;20240;-78
2023/09/26 00:22:42;;;;;;;5.10;4.68;;;;;;;18.01;100.00;63860.22;5050266;28;20261;-80
2023/09/26 00:25:11;;;;;;;8.48;5.05;;;;;;;17.94;100.00;63852.41;5060036;28;20311;-78
2023/09/26 00:27:38;;;;;;;5.22;4.75;;;;;;;17.89;100.00;63847.19;5057386;28;20227;-79
2023/09/26 00:30:08;;;;;;;13.48;5.45;;;;;;;17.85;100.00;63846.13;5064129;28;20221;-80
2023/09/26 00:32:36;;;;;;;12.68;5.25;;;;;;;17.81;100.00;63844.03;5053670;28;20213;-80
2023/09/26 00:35:04;;;;;;;10.00;5.55;;;;;;;17.75;100.00;63838.28;5058763;28;20234;-78
2023/09/26 00:37:31;;;;;;;6.00;5.07;;;;;;;17.73;100.00;63828.47;5069140;28;20210;-79
2023/09/26 00:39:58;;;;;;;5.90;5.38;;;;;;;17.72;100.00;63830.00;5068014;28;20236;-79
2023/09/26 00:42:27;;;;;;;5.72;5.03;;;;;;;17.76;100.00;63831.06;5061249;28;20220;-79
2023/09/26 00:44:55;;;;;;;7.28;4.97;;;;;;;17.59;100.00;63824.19;5048817;28;20220;-78
2023/09/26 00:47:23;;;;;;;11.57;5.28;;;;;;;17.57;100.00;63814.38;5047677;28;20197;-79
2023/09/26 00:49:50;;;;;;;6.72;5.55;;;;;;;17.55;100.00;63814.88;5049096;28;20247;-79
2023/09/26 00:52:17;;;;;;;10.02;5.85;;;;;;;17.49;100.00;63808.09;5047748;28;20343;-78
2023/09/26 00:54:44;;;;;;;8.00;5.57;;;;;;;17.41;100.00;63797.19;5058259;28;20248;-78
2023/09/26 00:57:12;;;;;;;16.45;6.18;;;;;;;17.38;100.00;63796.66;5067997;28;20212;-78
2023/09/26 00:59:40;;;;;;;12.82;6.40;;;;;;;17.30;100.00;63786.78;5066281;28;20280;-78
2023/09/26 01:02:10;;;;;;;8.05;5.45;;;;;;;17.25;100.00;63781.06;5070367;28;20211;-77
2023/09/26 01:04:38;;;;;;;10.85;5.85;;;;;;;17.18;100.00;63776.88;5063095;28;20216;-78
2023/09/26 01:07:05;;;;;;;8.13;5.68;;;;;;;17.15;100.00;63770.66;5068273;28;20197;-78
2023/09/26 01:09:32;;;;;;;10.93;5.72;;;;;;;17.15;100.00;63770.66;5065696;28;20296;-78
2023/09/26 01:11:59;;;;;;;10.35;5.75;;;;;;;17.11;100.00;63769.56;5066460;28;20200;-78
2023/09/26 01:14:27;;;;;;;8.05;6.00;;;;;;;17.11;100.00;63764.44;5050020;28;20232;-80
2023/09/26 01:16:57;;;;;;;13.23;5.95;;;;;;;17.10;100.00;63768.00;5048512;28;20205;-78
2023/09/26 01:19:24;;;;;;;15.10;6.45;;;;;;;17.10;100.00;63763.38;5059359;28;20221;-79
2023/09/26 01:21:51;;;;;;;9.50;5.72;;;;;;;17.04;100.00;63759.19;5059071;28;20247;-78
2023/09/26 01:24:19;;;;;;;8.82;5.95;;;;;;;17.03;100.00;63758.66;5045553;28;20222;-78
2023/09/26 01:26:47;;;;;;;11.40;6.20;;;;;;;17.02;100.00;63762.25;5061558;28;20364;-77
2023/09/26 01:29:15;;;;;;;8.00;6.10;;;;;;;16.98;100.00;63760.66;5068397;28;20284;-78
2023/09/26 01:31:42;;;;;;;9.68;5.70;;;;;;;16.97;100.00;63749.31;5053762;28;20267;-78
2023/09/26 01:34:11;;;;;;;8.45;6.45;;;;;;;16.95;100.00;63749.81;5046928;28;20247;-79
2023/09/26 01:36:38;;;;;;;11.00;5.60;;;;;;;16.86;100.00;63743.03;5056735;28;20224;-79
2023/09/26 01:39:07;;;;;;;7.38;5.68;;;;;;;16.86;100.00;63748.69;5071151;28;20193;-78
2023/09/26 01:41:35;;;;;;;10.90;5.93;;;;;;;16.86;100.00;63745.59;5057164;28;20237;-80
2023/09/26 01:44:02;;;;;;;11.60;6.25;;;;;;;16.88;100.00;63747.69;5052030;28;20220;-82
2023/09/26 01:46:29;;;;;;;12.93;6.53;;;;;;;16.89;100.00;63743.59;5051052;28;20477;-78
2023/09/26 01:48:56;;;;;;;7.15;5.65;;;;;;;16.90;100.00;63747.19;5051552;28;20517;-78
2023/09/26 01:51:23;;;;;;;6.75;5.65;;;;;;;16.89;100.00;63741.53;5069881;28;20207;-79
2023/09/26 01:53:51;;;;;;;8.27;5.75;;;;;;;16.92;100.00;63747.22;5069768;28;20379;-79
2023/09/26 01:56:17;;;;;;;10.23;6.00;;;;;;;16.90;100.00;63747.72;5051648;28;20201;-78
2023/09/26 01:58:49;;;;;;;10.60;5.70;;;;;;;16.88;100.00;63743.06;5058273;28;20200;-78
2023/09/26 02:01:17;;;;;;;13.75;6.63;;;;;;;16.85;100.00;63739.41;5068775;28;20270;-77
2023/09/26 02:03:44;;;;;;;9.48;5.82;;;;;;;16.80;100.00;63731.63;5062121;28;20225;-80
2023/09/26 02:06:11;;;;;;;10.65;6.03;;;;;;;16.87;100.00;63741.50;5049413;28;20470;-78
2023/09/26 02:08:38;;;;;;;7.22;5.53;;;;;;;16.91;100.00;63743.09;5051166;28;20201;-77
2023/09/26 02:11:05;;;;;;;11.50;6.28;;;;;;;16.93;100.00;63750.31;5050213;28;20233;-78
2023/09/26 02:13:32;;;;;;;10.70;5.22;;;;;;;16.93;100.00;63750.31;5051845;28;20443;-78
2023/09/26 02:16:00;;;;;;;8.27;5.07;;;;;;;16.88;100.00;63739.97;5048300;28;20396;-78
2023/09/26 02:18:28;;;;;;;11.27;5.50;;;;;;;16.89;100.00;63743.59;5055796;28;20193;-78
2023/09/26 02:20:55;;;;;;;8.90;5.43;;;;;;;16.79;100.00;63736.25;5071515;28;20255;-78
2023/09/26 02:23:22;;;;;;;10.15;5.47;;;;;;;16.89;100.00;63746.16;5069917;28;20217;-77
2023/09/26 02:25:51;;;;;;;7.93;5.25;;;;;;;16.92;100.00;63749.78;5057260;28;20234;-78
2023/09/26 02:28:19;;;;;;;9.10;5.57;;;;;;;16.92;100.00;63744.66;5054148;28;20222;-77
2023/09/26 02:30:47;;;;;;;10.93;5.20;;;;;;;16.91;100.00;63745.66;5067229;28;20232;-77
2023/09/26 02:33:15;;;;;;;9.60;5.57;;;;;;;16.89;100.00;63746.69;5070384;28;20203;-78
2023/09/26 02:35:42;;;;;;;11.07;4.82;;;;;;;16.93;100.00;63745.69;5056502;28;20427;-78
2023/09/26 02:38:09;;;;;;;7.70;5.40;;;;;;;16.89;100.00;63743.59;5049207;28;20202;-77
2023/09/26 02:40:36;;;;;;;6.82;5.65;;;;;;;16.84;100.00;63736.31;5048186;28;20233;-77
2023/09/26 02:43:03;;;;;;;7.13;4.88;;;;;;;16.81;100.00;63735.25;5053848;28;20197;-77
2023/09/26 02:45:31;;;;;;;10.10;5.28;;;;;;;16.84;100.00;63735.81;5068695;28;20225;-78
2023/09/26 02:47:58;;;;;;;14.75;5.25;;;;;;;16.89;98.12;63744.09;5065143;28;20193;-78
2023/09/26 02:50:27;;;;;;;7.45;4.35;;;;;;;16.83;100.00;63737.31;5066903;28;20453;-78
2023/09/26 02:52:54;;;;;;;18.90;5.70;;;;;;;16.82;99.23;63739.41;5067335;28;20202;-78
2023/09/26 02:55:21;;;;;;;11.02;4.53;;;;;;;16.86;97.60;63743.03;5071474;28;20216;-78
2023/09/26 02:57:48;;;;;;;9.10;4.70;;;;;;;16.80;95.01;63739.34;5063421;28;20512;-77
2023/09/26 03:00:17;;;;;;;8.10;4.55;;;;;;;16.88;93.39;63742.53;5049634;28;20244;-78
2023/09/26 03:02:49;;;;;;;10.35;4.35;;;;;;;16.90;90.85;63747.72;5052451;28;20193;-80
2023/09/26 03:05:17;;;;;;;12.63;4.78;;;;;;;16.95;88.52;63752.38;5050006;28;20536;-78
2023/09/26 03:07:46;;;;;;;6.07;4.10;;;;;;;16.95;88.36;63752.38;5049417;28;20213;-78
2023/09/26 03:10:14;;;;;;;8.60;4.15;;;;;;;16.93;85.43;63753.41;5049494;28;20469;-78
2023/09/26 03:12:44;;;;;;;8.88;3.78;;;;;;;16.81;85.93;63738.34;5051035;28;20197;-78
2023/09/26 03:15:12;;;;;;;9.50;3.85;;;;;;;16.88;84.02;63742.53;5050149;28;20217;-79
2023/09/26 03:17:40;;;;;;;8.38;4.80;;;;;;;16.79;82.92;63733.19;5048942;28;20208;-78
2023/09/26 03:20:10;;;;;;;6.57;3.63;;;;;;;16.75;86.01;63729.53;5050145;28;20537;-79
2023/09/26 03:22:37;;;;;;;4.90;3.88;;;;;;;16.78;84.52;63732.13;5050492;28;20208;-79
2023/09/26 03:25:07;;;;;;;7.40;4.03;;;;;;;16.86;81.14;63740.97;5050699;28;20221;-79
2023/09/26 03:27:34;;;;;;;9.40;4.07;;;;;;;16.80;79.18;63734.22;5060516;28;20193;-79
2023/09/26 03:30:01;;;;;;;14.60;3.50;;;;;;;16.68;81.75;63724.28;5053103;28;20240;-79
2023/09/26 03:32:29;;;;;;;10.25;4.18;;;;;;;16.70;81.89;63726.38;5068876;28;20430;-79
2023/09/26 03:34:56;;;;;;;4.68;3.42;;;;;;;16.76;78.99;63728.00;5055777;28;20216;-78
2023/09/26 03:37:23;;;;;;;7.75;3.70;;;;;;;16.76;77.69;63732.63;5049055;28;20201;-77
2023/09/26 03:39:50;;;;;;;15.25;3.70;;;;;;;16.86;76.05;63743.53;5059320;28;20220;-78
2023/09/26 03:42:19;;;;;;;11.23;3.90;;;;;;;16.83;78.32;63737.84;5056727;28;20221;-79
2023/09/26 03:44:46;;;;;;;8.52;3.35;;;;;;;16.77;78.76;63731.63;5054448;28;20229;-79
2023/09/26 03:47:13;;;;;;;5.00;3.47;;;;;;;16.90;77.89;63749.75;5065781;28;20214;-79
2023/09/26 03:49:41;;;;;;;10.10;3.38;;;;;;;16.77;76.79;63734.19;5051467;28;20288;-79
2023/09/26 03:52:08;;;;;;;11.45;3.80;;;;;;;16.78;77.23;63737.78;5053722;28;20260;-78
2023/09/26 03:54:36;;;;;;;9.88;4.03;;;;;;;16.71;75.09;63724.84;5054332;28;20241;-79
2023/09/26 03:57:04;;;;;;;8.82;3.67;;;;;;;16.67;76.77;63718.63;5067688;28;20201;-79
2023/09/26 03:59:32;;;;;;;11.20;3.70;;;;;;;16.70;75.79;63729.47;5061582;28;20217;-80
2023/09/26 04:01:59;;;;;;;7.57;4.68;;;;;;;16.73;74.04;63732.59;5053008;28;20309;-78
2023/09/26 04:04:26;;;;;;;11.18;3.30;;;;;;;16.67;75.04;63720.69;5048048;28;20217;-79
2023/09/26 04:06:53;;;;;;;9.93;4.05;;;;;;;16.65;74.26;63721.69;5049672;28;20265;-78
2023/09/26 04:09:20;;;;;;;12.10;4.13;;;;;;;16.67;74.85;63720.69;5047584;28;20213;-79
2023/09/26 04:11:49;;;;;;;17.30;5.05;;;;;;;16.70;73.58;63724.34;5068163;28;20409;-78
2023/09/26 04:14:16;;;;;;;6.55;3.63;;;;;;;16.57;75.56;63708.22;5051713;28;20252;-80
2023/09/26 04:16:44;;;;;;;8.38;3.20;;;;;;;16.46;76.01;63701.38;5052305;28;20283;-79
2023/09/26 04:19:11;;;;;;;12.30;3.35;;;;;;;16.53;76.74;63704.06;5062236;28;20220;-79
2023/09/26 04:21:39;;;;;;;10.35;3.70;;;;;;;16.56;78.22;63712.34;5048987;28;20248;-79
2023/09/26 04:24:06;;;;;;;6.28;3.88;;;;;;;16.48;78.45;63698.34;5055837;28;20196;-78
2023/09/26 04:26:34;;;;;;;9.85;3.60;;;;;;;16.48;79.11;63701.44;5055541;28;20201;-79
2023/09/26 04:29:01;;;;;;;7.88;4.03;;;;;;;16.48;78.87;63701.44;5056039;28;20212;-77
2023/09/26 04:31:29;;;;;;;10.98;4.03;;;;;;;16.48;78.54;63700.94;5058858;28;20202;-77
2023/09/26 04:33:57;;;;;;;10.60;4.25;;;;;;;16.46;79.65;63699.38;5064155;28;20207;-77
2023/09/26 04:36:24;;;;;;;14.75;3.97;;;;;;;16.44;80.70;63694.16;5059197;28;20232;-77
2023/09/26 04:38:51;;;;;;;14.98;4.60;;;;;;;16.40;82.29;63690.00;5049377;28;20197;-79
2023/09/26 04:41:18;;;;;;;9.95;3.85;;;;;;;16.45;81.47;63698.28;5049422;28;20225;-78
2023/09/26 04:43:45;;;;;;;5.72;3.47;;;;;;;16.48;80.23;63698.84;5058229;28;20200;-79
2023/09/26 04:46:13;;;;;;;13.48;3.92;;;;;;;16.52;80.12;63703.03;5068197;28;20201;-80
2023/09/26 04:48:40;;;;;;;8.52;4.57;;;;;;;16.55;79.78;63708.72;5064077;28;20201;-79
2023/09/26 04:51:11;;;;;;;14.02;3.67;;;;;;;16.56;80.16;63707.19;5067821;28;20284;-78
2023/09/26 04:53:39;;;;;;;7.30;3.92;;;;;;;16.50;81.62;63700.44;5064000;28;20201;-79
2023/09/26 04:56:07;;;;;;;8.30;3.78;;;;;;;16.52;81.45;63708.16;5055774;28;20255;-79
2023/09/26 04:58:34;;;;;;;3.13;2.85;;;;;;;16.51;82.69;63704.56;5054271;28;20257;-78
2023/09/26 05:01:12;;;;;;;11.73;4.13;;;;;;;16.58;82.94;63708.75;5046401;28;20429;-79
2023/09/26 05:03:39;;;;;;;8.07;3.80;;;;;;;16.59;83.15;63710.31;5049653;28;20217;-78
2023/09/26 05:06:10;;;;;;;8.95;4.20;;;;;;;16.71;83.25;63724.84;5047925;28;20214;-79
2023/09/26 05:08:37;;;;;;;15.90;4.75;;;;;;;16.81;81.26;63738.34;5053843;28;20192;-78
2023/09/26 05:11:05;;;;;;;6.03;3.80;;;;;;;16.92;79.59;63752.38;5071638;28;20299;-79
2023/09/26 05:13:32;;;;;;;11.77;4.78;;;;;;;17.03;78.86;63763.31;5072239;28;20203;-79
2023/09/26 05:15:59;;;;;;;9.55;4.90;;;;;;;17.18;77.18;63778.91;5063899;28;20280;-79
2023/09/26 05:18:26;;;;;;;15.60;4.22;;;;;;;17.23;78.75;63779.50;5057888;28;20257;-79
2023/09/26 05:20:53;;;;;;;7.70;4.45;;;;;;;17.38;76.05;63794.56;5054449;28;20229;-79
2023/09/26 05:23:21;;;;;;;6.15;3.72;;;;;;;17.33;75.23;63789.91;5060072;28;20493;-78
2023/09/26 05:25:49;;;;;;;8.40;3.70;;;;;;;17.45;78.80;63803.94;5056903;28;20510;-78
2023/09/26 05:28:16;;;;;;;7.45;3.83;;;;;;;17.60;77.85;63817.50;5050847;28;20213;-78
2023/09/26 05:30:43;;;;;;;12.45;4.25;;;;;;;17.69;78.84;63826.38;5052428;28;20227;-78
2023/09/26 05:33:11;;;;;;;8.82;4.05;;;;;;;17.84;78.80;63839.94;5068511;28;20208;-79
2023/09/26 05:35:38;;;;;;;11.18;3.95;;;;;;;17.99;74.11;63860.19;5068245;28;20540;-78
2023/09/26 05:38:05;;;;;;;10.73;3.65;;;;;;;18.12;73.24;63871.66;5073832;28;20216;-79
2023/09/26 05:40:34;;;;;;;11.98;4.60;;;;;;;18.22;71.40;63881.56;5070004;28;20266;-79
2023/09/26 05:43:01;;;;;;;4.10;3.72;;;;;;;18.32;70.68;63892.50;5052769;28;20252;-79
2023/09/26 05:45:28;;;;;;;10.45;4.20;;;;;;;18.51;71.01;63911.81;5052025;28;20224;-80
2023/09/26 05:47:55;;;;;;;8.20;5.35;;;;;;;18.64;69.49;63927.91;5052999;28;20464;-79
2023/09/26 05:50:22;;;;;;;7.63;3.92;;;;;;;18.69;67.95;63935.22;5057651;28;20220;-81
2023/09/26 05:52:52;;;;;;;8.93;4.07;;;;;;;18.57;66.65;63918.03;5068097;28;20231;-80
2023/09/26 05:55:19;;;;;;;9.80;3.97;;;;;;;18.77;68.87;63940.97;5061987;28;20227;-79
2023/09/26 05:57:48;;;;;;;14.95;4.47;;;;;;;18.83;66.85;63944.63;5066858;28;20201;-78
2023/09/26 06:00:16;;;;;;;10.95;4.57;;;;;;;18.86;65.59;63942.59;5055944;28;20271;-79
2023/09/26 06:02:44;;;;;;;16.90;3.90;;;;;;;19.02;65.54;63964.97;5051654;28;20288;-81
2023/09/26 06:05:13;;;;;;;8.88;4.00;;;;;;;19.03;64.96;63970.66;5052827;28;20214;-80
2023/09/26 06:07:41;;;;;;;6.75;4.63;;;;;;;18.99;65.08;63959.25;5054304;28;20197;-79
2023/09/26 06:10:11;;;;;;;9.27;4.38;;;;;;;19.10;65.53;63967.63;5050689;28;20267;-80
2023/09/26 06:12:38;;;;;;;6.38;3.97;;;;;;;19.23;64.99;63986.31;5053702;28;20261;-78
2023/09/26 06:15:10;;;;;;;9.43;3.60;;;;;;;19.29;65.06;63992.59;5052208;28;20217;-80
2023/09/26 06:17:39;;;;;;;20.70;4.40;;;;;;;19.27;64.62;63996.19;5052727;28;20240;-79
2023/09/26 06:20:08;;;;;;;8.10;4.00;;;;;;;18.80;64.47;63941.50;5052986;28;20471;-79
2023/09/26 06:22:36;;;;;;;13.48;3.72;;;;;;;18.90;65.00;63951.91;5054204;28;20228;-79
2023/09/26 06:25:04;;;;;;;9.73;3.50;;;;;;;18.96;65.17;63963.88;5069855;28;20226;-79
2023/09/26 06:27:34;;;;;;;7.70;3.97;;;;;;;19.15;65.56;63978.53;5066201;28;20198;-78
2023/09/26 06:30:02;;;;;;;12.85;3.95;;;;;;;19.08;66.91;63973.81;5059351;28;20233;-79
2023/09/26 06:32:31;;;;;;;12.10;3.95;;;;;;;19.23;66.97;63992.03;5058818;28;20207;-79
2023/09/26 06:34:59;;;;;;;8.68;3.47;;;;;;;19.20;65.93;63985.78;5071545;28;20251;-79
2023/09/26 06:37:26;;;;;;;9.77;4.25;;;;;;;19.36;65.91;64005.09;5069027;28;20200;-79
2023/09/26 06:39:58;;;;;;;8.98;3.63;;;;;;;19.38;65.66;64002.50;5066069;28;20209;-79
2023/09/26 06:42:25;;;;;;;11.70;3.58;;;;;;;19.28;65.22;63992.06;5063397;28;20232;-79
2023/09/26 06:44:52;;;;;;;10.40;3.75;;;;;;;19.39;65.61;64003.03;5055980;28;20236;-79
2023/09/26 06:47:20;;;;;;;6.90;3.35;;;;;;;19.56;65.33;64020.75;5062989;28;20193;-79
2023/09/26 06:49:48;;;;;;;12.45;4.30;;;;;;;19.44;65.45;64006.19;5071070;28;20568;-79
2023/09/26 06:52:16;;;;;;;8.85;3.78;;;;;;;19.47;67.06;64013.97;5051385;28;20224;-78
2023/09/26 06:54:43;;;;;;;9.48;4.30;;;;;;;19.64;67.07;64033.75;5067114;28;20319;-82
2023/09/26 06:57:15;;;;;;;8.02;3.70;;;;;;;19.73;65.85;64041.06;5071535;28;20486;-79
2023/09/26 06:59:42;;;;;;;5.57;4.40;;;;;;;19.84;65.41;64052.56;5071751;28;20217;-81
2023/09/26 07:02:10;;;;;;;6.82;4.18;;;;;;;19.83;65.99;64046.34;5070272;28;20228;-79
2023/09/26 07:04:37;;;;;;;11.68;5.78;;;;;;;19.67;67.05;64031.72;5069870;28;20259;-79
2023/09/26 07:07:06;;;;;;;20.85;9.55;;;;;;;19.65;66.46;64032.75;5061566;28;20201;-79
2023/09/26 07:09:33;;;;;;;16.73;7.65;;;;;;;19.79;67.83;64049.94;5071246;28;20253;-80
2023/09/26 07:12:00;;;;;;;23.73;9.32;;;;;;;19.99;68.49;64067.69;5061398;28;20197;-80
2023/09/26 07:14:32;;;;;;;20.45;11.38;;;;;;;20.12;67.52;64079.19;5051684;28;20232;-79
2023/09/26 07:16:59;;;;;;;24.15;10.90;;;;;;;20.22;67.43;64094.81;5055061;28;20215;-79
2023/09/26 07:19:32;;;;;;;12.50;5.28;;;;;;;20.21;66.57;64093.75;5070501;28;20227;-79
2023/09/26 07:21:59;;;;;;;8.93;4.72;;;;;;;20.29;66.44;64096.44;5049004;28;20232;-79
2023/09/26 07:24:27;;;;;;;24.77;11.45;;;;;;;20.40;65.71;64108.41;5051383;28;20233;-79
2023/09/26 07:26:55;;;;;;;16.08;8.05;;;;;;;20.51;65.46;64119.91;5052423;28;20205;-79
2023/09/26 07:29:21;;;;;;;23.67;10.65;;;;;;;20.67;64.46;64136.09;5052060;28;20225;-79
2023/09/26 07:31:48;;;;;;;13.45;4.70;;;;;;;20.82;64.18;64151.75;5066435;28;20196;-79
2023/09/26 07:34:16;;;;;;;17.58;5.75;;;;;;;20.73;64.32;64147.53;5065505;28;20217;-79
2023/09/26 07:36:44;;;;;;;9.52;4.65;;;;;;;20.56;62.36;64127.72;5061380;28;20260;-80
2023/09/26 07:39:14;;;;;;;12.00;4.70;;;;;;;20.65;64.57;64134.00;5069347;28;20270;-78
2023/09/26 07:41:43;;;;;;;11.70;4.43;;;;;;;20.79;62.38;64153.78;5071195;28;20196;-80
2023/09/26 07:44:10;;;;;;;13.90;4.38;;;;;;;20.94;62.26;64166.34;5066825;28;20217;-79
2023/09/26 07:46:37;;;;;;;10.45;4.18;;;;;;;20.93;60.03;64165.28;5056192;28;20476;-77
2023/09/26 07:49:04;;;;;;;8.25;5.03;;;;;;;20.90;60.79;64157.50;5061068;28;20235;-78
2023/09/26 07:51:32;;;;;;;11.55;4.60;;;;;;;21.05;60.12;64180.97;5050148;28;20212;-79
2023/09/26 07:53:59;;;;;;;8.98;4.00;;;;;;;21.13;61.95;64184.13;5059320;28;20196;-79
2023/09/26 07:56:26;;;;;;;8.40;4.30;;;;;;;21.22;61.21;64193.00;5053913;28;20231;-79
2023/09/26 07:58:55;;;;;;;15.07;4.28;;;;;;;21.29;59.93;64206.03;5059764;28;20418;-79
2023/09/26 08:01:22;;;;;;;13.75;4.53;;;;;;;21.50;60.14;64224.84;5058934;28;20233;-78
2023/09/26 08:03:51;;;;;;;14.15;3.88;;;;;;;21.56;58.66;64229.03;5053663;28;20229;-79
2023/09/26 08:06:18;;;;;;;8.07;3.72;;;;;;;21.55;59.75;64232.66;5053996;28;20204;-79
2023/09/26 08:08:46;;;;;;;12.57;4.50;;;;;;;21.28;57.24;64202.38;5052877;28;20205;-81
2023/09/26 08:11:14;;;;;;;5.68;3.63;;;;;;;21.14;59.48;64187.75;5054838;28;20216;-80
2023/09/26 08:13:41;;;;;;;6.80;3.65;;;;;;;21.19;58.47;64192.97;5050387;28;20203;-79
2023/09/26 08:16:10;;;;;;;10.05;4.43;;;;;;;21.36;58.97;64205.56;5063487;28;20235;-79
2023/09/26 08:18:38;;;;;;;14.52;3.58;;;;;;;21.49;57.34;64221.19;5060241;28;20220;-79
2023/09/26 08:21:05;;;;;;;8.45;4.25;;;;;;;21.31;56.48;64202.41;5050159;28;20253;-79
2023/09/26 08:23:33;;;;;;;14.15;3.78;;;;;;;21.02;57.40;64174.72;5057705;28;20411;-80
2023/09/26 08:26:02;;;;;;;9.23;3.40;;;;;;;21.01;58.91;64173.66;5057351;28;20216;-81
2023/09/26 08:28:30;;;;;;;13.05;3.65;;;;;;;21.24;56.15;64190.44;5059891;28;20197;-78
2023/09/26 08:30:57;;;;;;;4.82;3.55;;;;;;;21.25;55.13;64199.25;5059010;28;20223;-80
2023/09/26 08:33:26;;;;;;;8.02;3.03;;;;;;;21.25;54.24;64201.31;5061314;28;20194;-78
2023/09/26 08:35:53;;;;;;;7.38;4.10;;;;;;;21.27;54.46;64196.16;5058117;28;20284;-79
2023/09/26 08:38:21;;;;;;;4.50;3.67;;;;;;;21.48;53.56;64220.16;5055537;28;20211;-79
2023/09/26 08:40:51;;;;;;;11.88;4.15;;;;;;;21.53;53.33;64222.78;5054544;28;20229;-77
2023/09/26 08:43:24;;;;;;;8.10;3.58;;;;;;;21.74;53.63;64252.50;5055123;28;20232;-79
2023/09/26 08:45:51;;;;;;;7.75;3.40;;;;;;;21.76;53.20;64249.41;5062374;28;20247;-79
2023/09/26 08:48:19;;;;;;;5.32;3.67;;;;;;;21.85;53.65;64256.25;5062209;28;20197;-82
2023/09/26 08:50:48;;;;;;;6.25;4.03;;;;;;;22.14;54.24;64293.81;5055501;28;20217;-80
2023/09/26 08:53:15;;;;;;;9.32;4.85;;;;;;;22.32;53.11;64310.56;5059741;28;20204;-79
2023/09/26 08:55:43;;;;;;;13.68;4.03;;;;;;;22.41;51.26;64319.44;5054162;28;20229;-82
2023/09/26 08:58:11;;;;;;;5.88;4.07;;;;;;;22.54;50.61;64333.56;5054976;28;20201;-81
2023/09/26 09:00:38;;;;;;;9.27;4.03;;;;;;;22.47;51.18;64323.63;5054126;28;20238;-78
2023/09/26 09:03:06;;;;;;;10.23;3.55;;;;;;;22.43;50.84;64321.53;5055324;28;20235;-80
2023/09/26 09:05:33;;;;;;;6.35;3.67;;;;;;;22.28;51.82;64300.66;5060058;28;20293;-79
2023/09/26 09:08:02;;;;;;;8.55;3.55;;;;;;;22.29;52.72;64307.41;5059860;28;20190;-80
2023/09/26 09:10:29;;;;;;;12.55;4.68;;;;;;;22.28;52.48;64305.84;5056187;28;20216;-77
2023/09/26 09:13:03;;;;;;;7.97;3.95;;;;;;;22.25;51.55;64305.28;5055749;28;20206;-79
2023/09/26 09:15:30;;;;;;;9.13;3.72;;;;;;;22.20;52.89;64297.47;5055586;28;20271;-79
2023/09/26 09:17:58;;;;;;;8.60;3.95;;;;;;;22.30;52.72;64307.94;5056986;28;20216;-80
2023/09/26 09:20:31;;;;;;;14.95;6.68;;;;;;;22.36;53.46;64314.22;5058903;28;20237;-78
2023/09/26 09:23:06;;;;;;;13.98;4.45;;;;;;;22.41;52.57;64316.84;5058781;28;20229;-78
2023/09/26 09:25:35;;;;;;;12.77;4.65;;;;;;;22.46;53.08;64325.19;5057723;28;20240;-79
2023/09/26 09:28:03;;;;;;;7.57;3.88;;;;;;;22.54;52.70;64330.97;5061259;28;20225;-78
2023/09/26 09:30:30;;;;;;;6.13;3.40;;;;;;;22.53;51.33;64332.50;5056792;28;20225;-78
2023/09/26 09:32:57;;;;;;;12.18;4.13;;;;;;;22.55;51.93;64336.69;5057540;28;20228;-78
2023/09/26 09:35:25;;;;;;;7.40;4.07;;;;;;;22.55;52.22;64331.50;5054838;28;20217;-79
2023/09/26 09:37:52;;;;;;;9.27;3.45;;;;;;;22.55;53.29;64337.22;5054540;28;20225;-79
2023/09/26 09:40:23;;;;;;;7.85;3.42;;;;;;;22.63;52.55;64340.38;5061338;28;20229;-79
2023/09/26 09:42:51;;;;;;;7.65;3.88;;;;;;;22.52;52.08;64331.44;5062477;28;20228;-79
2023/09/26 09:45:19;;;;;;;7.40;4.43;;;;;;;22.43;52.99;64318.94;5057977;28;20221;-79
2023/09/26 09:47:49;;;;;;;5.38;3.75;;;;;;;22.51;52.12;64329.88;5057418;28;20262;-78
2023/09/26 09:50:17;;;;;;;7.88;4.13;;;;;;;22.68;52.66;64345.59;5059568;28;20345;-80
2023/09/26 09:52:48;;;;;;;5.72;3.47;;;;;;;22.88;52.26;64371.72;5056491;28;20247;-79
2023/09/26 09:55:24;;;;;;;9.13;3.65;;;;;;;23.04;50.58;64387.91;5054908;28;20209;-81
2023/09/26 09:57:52;;;;;;;15.88;4.82;;;;;;;23.17;50.18;64401.00;5056194;28;20222;-79
2023/09/26 10:00:24;;;;;;;9.15;3.05;;;;;;;23.45;51.24;64428.22;5062709;28;20224;-78
2023/09/26 10:02:52;;;;;;;9.55;3.60;;;;;;;23.52;50.35;64435.03;5055165;28;20225;-79
2023/09/26 10:05:19;;;;;;;11.05;3.63;;;;;;;23.64;49.18;64445.00;5060294;28;20217;-79
2023/09/26 10:07:49;;;;;;;15.80;3.28;;;;;;;23.77;47.78;64456.50;5057586;28;20193;-79
2023/09/26 10:10:18;;;;;;;12.38;3.55;;;;;;;23.72;47.38;64450.75;5053287;28;20256;-80
2023/09/26 10:12:48;;;;;;;5.53;3.17;;;;;;;23.62;48.05;64440.81;5062579;28;20229;-78
2023/09/26 10:15:16;;;;;;;7.85;3.05;;;;;;;23.85;48.81;64470.09;5063372;28;20217;-81
2023/09/26 10:17:48;;;;;;;6.93;3.30;;;;;;;24.17;48.92;64494.75;5060265;28;20196;-81
2023/09/26 10:20:17;;;;;;;5.85;3.00;;;;;;;24.37;46.54;64523.47;5055559;28;20212;-79
2023/09/26 10:22:45;;;;;;;8.57;4.07;;;;;;;24.37;46.02;64526.63;5058746;28;20227;-81
2023/09/26 10:25:18;;;;;;;13.18;9.68;;;;;;;24.53;45.93;64537.63;5056894;28;20208;-82
2023/09/26 10:27:48;;;;;;;6.13;2.90;;;;;;;24.49;44.47;64536.06;5058312;28;20198;-81
2023/09/26 10:30:15;;;;;;;7.30;3.28;;;;;;;24.44;45.51;64531.34;5060400;28;20218;-81
2023/09/26 10:32:44;;;;;;;4.07;2.97;;;;;;;24.56;45.53;64540.78;5057531;28;20197;-79
2023/09/26 10:35:28;;;;;;;11.98;3.15;;;;;;;24.41;45.20;64528.19;5063281;28;20213;-80
2023/09/26 10:38:07;;;;;;;12.93;4.40;;;;;;;24.12;46.13;64499.91;5061948;28;20190;-83
2023/09/26 10:40:34;;;;;;;3.83;3.33;;;;;;;24.17;47.47;64499.94;5061553;28;20216;-81
2023/09/26 10:43:02;;;;;;;8.75;3.47;;;;;;;24.05;47.82;64487.91;5059231;28;20235;-79
2023/09/26 10:45:29;;;;;;;5.00;4.22;;;;;;;24.10;47.89;64497.81;5060763;28;20248;-80
2023/09/26 10:47:57;;;;;;;5.05;2.92;;;;;;;24.21;46.88;64504.13;5054577;28;20231;-81
2023/09/26 10:50:25;;;;;;;9.45;3.42;;;;;;;24.33;46.90;64519.84;5057126;28;20466;-81
2023/09/26 10:52:52;;;;;;;3.53;2.72;;;;;;;24.47;45.44;64531.88;5052234;28;20208;-80
2023/09/26 10:55:21;;;;;;;4.20;3.03;;;;;;;24.56;45.87;64545.97;5060729;28;20260;-80
2023/09/26 10:57:51;;;;;;;5.95;3.10;;;;;;;24.62;45.35;64549.66;5066864;28;20206;-82
2023/09/26 11:00:22;;;;;;;7.72;3.38;;;;;;;24.69;45.38;64560.16;5060213;28;20208;-80
2023/09/26 11:02:49;;;;;;;4.82;2.88;;;;;;;24.81;44.74;64569.59;5059514;28;20197;-80
2023/09/26 11:05:17;;;;;;;5.95;3.45;;;;;;;24.91;44.98;64575.38;5053764;28;20225;-81
2023/09/26 11:07:46;;;;;;;11.48;3.65;;;;;;;25.06;45.35;64596.28;5052354;28;20197;-80
2023/09/26 11:10:14;;;;;;;8.20;2.95;;;;;;;25.02;44.20;64591.59;5066768;28;20243;-82
2023/09/26 11:12:42;;;;;;;6.75;3.83;;;;;;;24.95;43.99;64586.84;5056556;28;20228;-81
2023/09/26 11:15:10;;;;;;;3.78;2.65;;;;;;;25.03;43.02;64592.63;5056663;28;20226;-80
2023/09/26 11:17:39;;;;;;;9.07;3.55;;;;;;;25.10;43.82;64594.75;5065880;28;20205;-80
2023/09/26 11:20:11;;;;;;;7.47;3.33;;;;;;;25.11;44.79;64603.59;5051471;28;20220;-81
2023/09/26 11:22:46;;;;;;;4.55;3.35;;;;;;;24.84;46.17;64570.13;5058437;28;20267;-80
2023/09/26 11:25:13;;;;;;;6.20;3.58;;;;;;;24.72;46.09;64555.47;5056538;28;20212;-81
2023/09/26 11:27:42;;;;;;;7.80;4.15;;;;;;;24.71;46.89;64561.72;5062838;28;20193;-81
2023/09/26 11:30:14;;;;;;;10.57;3.80;;;;;;;24.66;47.13;64554.38;5070277;28;20252;-78
2023/09/26 11:32:45;;;;;;;8.68;4.32;;;;;;;24.62;46.42;64550.19;5055525;28;20204;-81